Time;durP1;ratioP1;P1;durP2;ratioP2;P2;SDS_P1;SDS_P2;PMS_P1;PMS_P2;Temp;Humidity;BMP_temperature;BMP_pressure;BME280_temperature;BME280_humidity;BME280_pressure;Samples;Min_cycle;Max_cycle;Signal;HPM_P1;HPM_P2
2022/06/18 00:01:20;;;;;;;10.02;4.28;;;18.50;99.90;;;;;;6278055;22;20074;-86
2022/06/18 00:03:48;;;;;;;9.27;4.35;;;18.40;99.90;;;;;;6285284;22;20043;-86
2022/06/18 00:06:14;;;;;;;8.65;4.22;;;18.50;99.90;;;;;;6285415;22;20458;-86
2022/06/18 00:08:41;;;;;;;10.38;4.47;;;18.40;99.90;;;;;;6260248;22;20108;-85
2022/06/18 00:15:23;;;;;;;8.85;4.47;;;18.30;99.90;;;;;;6277836;22;20737;-86
2022/06/18 00:18:00;;;;;;;9.65;4.53;;;18.20;99.90;;;;;;6275709;22;20066;-86
2022/06/18 00:20:47;;;;;;;9.45;4.50;;;18.30;99.90;;;;;;6276793;22;20046;-86
2022/06/18 00:23:36;;;;;;;10.48;4.70;;;18.10;99.90;;;;;;6275820;22;20038;-86
2022/06/18 00:26:17;;;;;;;11.52;4.95;;;18.20;99.90;;;;;;6257668;22;20099;-86
2022/06/18 00:28:44;;;;;;;12.48;4.65;;;18.00;99.90;;;;;;6248497;22;20392;-86
2022/06/18 00:31:10;;;;;;;11.13;5.00;;;18.00;99.90;;;;;;6249199;22;20019;-86
2022/06/18 00:33:39;;;;;;;10.10;4.63;;;18.50;99.90;;;;;;6248188;22;20066;-86
2022/06/18 00:36:06;;;;;;;9.63;4.68;;;18.00;99.90;;;;;;6249253;22;20012;-87
2022/06/18 00:38:37;;;;;;;9.27;4.30;;;17.90;99.90;;;;;;6248851;22;20336;-86
2022/06/18 00:41:05;;;;;;;9.13;4.32;;;17.90;99.90;;;;;;6247855;22;20479;-85
2022/06/18 00:43:36;;;;;;;10.25;4.68;;;17.90;99.90;;;;;;6277119;22;20098;-86
2022/06/18 00:46:24;;;;;;;11.63;4.70;;;17.90;99.90;;;;;;6246467;22;20363;-86
2022/06/18 00:48:58;;;;;;;10.23;4.45;;;17.90;99.90;;;;;;6275682;22;20062;-86
2022/06/18 00:52:10;;;;;;;9.18;4.30;;;17.90;99.90;;;;;;6275290;22;20015;-86
2022/06/18 00:55:02;;;;;;;10.80;4.65;;;17.90;99.90;;;;;;6247698;22;20447;-86
2022/06/18 00:57:35;;;;;;;10.48;5.00;;;17.80;99.90;;;;;;6249109;22;20014;-86
2022/06/18 01:00:14;;;;;;;9.45;4.40;;;17.80;99.90;;;;;;6247307;22;20103;-86
2022/06/18 01:02:44;;;;;;;10.40;4.55;;;17.80;99.90;;;;;;6248389;22;20097;-87
2022/06/18 01:05:19;;;;;;;9.30;4.30;;;17.80;99.90;;;;;;6248908;22;20016;-86
2022/06/18 01:07:49;;;;;;;9.18;4.63;;;17.80;99.90;;;;;;6273679;22;20015;-86
2022/06/18 01:10:24;;;;;;;10.40;4.90;;;17.80;99.90;;;;;;6248939;22;20436;-86
2022/06/18 01:12:50;;;;;;;9.88;4.78;;;17.80;99.90;;;;;;6275244;22;20444;-86
2022/06/18 01:15:20;;;;;;;10.32;4.60;;;17.80;99.90;;;;;;6274308;22;20007;-86
2022/06/18 01:17:48;;;;;;;10.80;5.07;;;17.70;99.90;;;;;;6248165;22;20008;-86
2022/06/18 01:20:14;;;;;;;11.15;5.00;;;17.70;99.90;;;;;;6275707;22;20459;-86
2022/06/18 01:23:18;;;;;;;10.60;4.78;;;17.80;99.90;;;;;;6272407;22;20023;-86
2022/06/18 01:25:43;;;;;;;10.63;5.20;;;17.70;99.90;;;;;;6248048;22;20026;-86
2022/06/18 01:28:36;;;;;;;10.30;4.78;;;17.80;99.90;;;;;;6230684;22;20020;-86
2022/06/18 01:34:59;;;;;;;14.00;5.43;;;18.30;99.90;;;;;;6181818;23;20040;-86
2022/06/18 01:37:56;;;;;;;10.18;4.93;;;17.80;99.90;;;;;;6180872;23;20048;-86
2022/06/18 01:40:50;;;;;;;10.88;5.05;;;17.70;99.90;;;;;;6156802;23;20564;-86
2022/06/18 01:43:28;;;;;;;10.95;4.90;;;17.70;99.90;;;;;;6181036;23;20453;-86
2022/06/18 01:46:17;;;;;;;9.63;4.65;;;17.70;99.90;;;;;;6156708;23;20028;-86
2022/06/18 01:48:44;;;;;;;9.38;4.72;;;17.70;99.90;;;;;;6207258;22;20150;-86
2022/06/18 01:52:20;;;;;;;9.73;4.80;;;18.50;99.90;;;;;;6246962;22;20012;-87
2022/06/18 01:55:29;;;;;;;11.43;5.22;;;17.70;99.90;;;;;;6272572;22;20027;-86
2022/06/18 01:58:30;;;;;;;11.25;5.10;;;17.60;99.90;;;;;;6246427;22;20015;-86
2022/06/18 02:01:15;;;;;;;9.68;5.20;;;17.50;99.90;;;;;;6121874;23;20052;-86
2022/06/18 02:03:50;;;;;;;11.77;5.95;;;18.10;99.90;;;;;;6119748;23;20089;-86
2022/06/18 02:06:16;;;;;;;12.73;5.57;;;17.50;99.90;;;;;;6248154;22;20012;-86
2022/06/18 02:08:42;;;;;;;11.25;5.38;;;18.00;99.90;;;;;;6247112;22;20030;-87
2022/06/18 02:11:13;;;;;;;12.52;5.72;;;18.40;99.90;;;;;;6247277;22;20103;-87
2022/06/18 02:14:03;;;;;;;13.32;6.28;;;17.50;99.90;;;;;;6274961;22;20007;-86
2022/06/18 02:16:44;;;;;;;11.63;6.03;;;18.20;99.90;;;;;;6248224;22;20015;-86
2022/06/18 02:19:35;;;;;;;12.35;6.55;;;17.50;99.90;;;;;;6274640;22;20046;-86
2022/06/18 02:22:06;;;;;;;17.58;7.00;;;18.50;99.90;;;;;;6247570;22;20094;-86
2022/06/18 02:24:32;;;;;;;12.82;6.40;;;17.80;99.90;;;;;;6274643;22;20011;-86
2022/06/18 02:26:58;;;;;;;13.15;6.55;;;17.80;99.90;;;;;;6247771;22;20010;-86
2022/06/18 02:29:29;;;;;;;11.73;6.55;;;17.90;99.90;;;;;;6247973;22;20400;-86
2022/06/18 02:31:55;;;;;;;12.27;6.72;;;18.20;99.90;;;;;;6246846;22;20023;-86
2022/06/18 02:34:25;;;;;;;11.52;6.75;;;17.80;99.90;;;;;;6249061;22;20356;-87
2022/06/18 02:36:51;;;;;;;14.32;6.82;;;17.80;99.90;;;;;;6249896;22;20444;-86
2022/06/18 02:39:17;;;;;;;12.25;7.13;;;17.80;99.90;;;;;;6276665;22;20073;-87
2022/06/18 02:41:44;;;;;;;14.52;7.03;;;17.90;99.90;;;;;;6249824;22;20054;-86
2022/06/18 02:44:11;;;;;;;14.65;8.00;;;17.90;99.90;;;;;;6277655;22;20090;-87
2022/06/18 02:46:38;;;;;;;12.45;6.65;;;18.00;99.90;;;;;;6275842;22;20062;-86
2022/06/18 02:49:06;;;;;;;15.48;7.35;;;18.00;99.90;;;;;;6276502;22;20065;-86
2022/06/18 02:51:34;;;;;;;12.23;6.53;;;18.40;99.90;;;;;;6276636;22;20043;-86
2022/06/18 02:53:59;;;;;;;11.95;7.18;;;18.30;99.90;;;;;;6248311;22;20058;-87
2022/06/18 02:56:25;;;;;;;13.35;7.22;;;18.10;99.90;;;;;;6250185;22;20019;-87
2022/06/18 02:58:50;;;;;;;15.88;7.30;;;18.20;99.90;;;;;;6249639;22;20102;-86
2022/06/18 03:01:24;;;;;;;13.93;7.40;;;18.30;99.90;;;;;;6276582;22;20020;-86
2022/06/18 03:03:53;;;;;;;13.82;7.50;;;18.30;99.90;;;;;;6277815;22;20138;-86
2022/06/18 03:06:21;;;;;;;16.48;7.68;;;18.30;99.90;;;;;;6255717;22;20026;-86
2022/06/18 03:08:48;;;;;;;13.57;7.18;;;18.30;99.90;;;;;;6296679;22;20016;-86
2022/06/18 03:13:59;;;;;;;14.52;7.65;;;18.40;99.90;;;;;;6282833;22;20032;-86
2022/06/18 03:16:26;;;;;;;13.68;7.88;;;18.40;99.90;;;;;;6250623;22;20018;-86
2022/06/18 03:18:54;;;;;;;12.88;7.20;;;18.50;99.90;;;;;;6278815;22;20049;-86
2022/06/18 03:21:34;;;;;;;14.73;7.55;;;18.50;99.90;;;;;;6248247;22;20018;-86
2022/06/18 03:24:01;;;;;;;13.50;7.18;;;18.50;99.90;;;;;;6249376;22;20069;-86
2022/06/18 03:26:27;;;;;;;12.82;7.53;;;18.60;99.90;;;;;;6249520;22;20012;-86
2022/06/18 03:28:53;;;;;;;14.18;7.75;;;18.60;99.90;;;;;;6248258;22;20018;-87
2022/06/18 03:31:19;;;;;;;12.50;7.40;;;18.60;99.90;;;;;;6276787;22;20050;-86
2022/06/18 03:33:46;;;;;;;12.70;7.50;;;18.60;99.90;;;;;;6276017;22;20015;-86
2022/06/18 03:36:13;;;;;;;14.77;7.70;;;18.70;99.90;;;;;;6247918;22;20440;-86
2022/06/18 03:38:39;;;;;;;13.10;7.68;;;18.70;99.90;;;;;;6276493;22;20066;-86
2022/06/18 03:41:09;;;;;;;12.40;7.53;;;18.90;99.90;;;;;;6275818;22;20016;-87
2022/06/18 03:43:34;;;;;;;15.98;8.60;;;18.80;99.90;;;;;;6247998;22;20087;-87
2022/06/18 03:46:05;;;;;;;14.50;8.15;;;18.90;99.90;;;;;;6248821;22;20058;-86
2022/06/18 03:48:43;;;;;;;14.20;7.75;;;18.90;99.90;;;;;;6275749;22;20015;-86
2022/06/18 03:51:10;;;;;;;13.18;8.32;;;18.90;99.90;;;;;;6248089;22;20019;-86
2022/06/18 03:53:36;;;;;;;14.40;8.73;;;19.50;99.90;;;;;;6275279;22;20016;-87
2022/06/18 03:56:01;;;;;;;15.20;8.40;;;19.00;99.90;;;;;;6275529;22;20494;-87
2022/06/18 03:58:29;;;;;;;12.50;8.23;;;19.00;99.90;;;;;;6249146;22;20012;-87
2022/06/18 04:00:55;;;;;;;12.88;8.50;;;19.10;99.90;;;;;;6249136;22;20019;-86
2022/06/18 04:03:36;;;;;;;14.60;8.77;;;19.00;99.90;;;;;;6247647;22;20118;-87
2022/06/18 04:06:17;;;;;;;15.00;8.70;;;19.00;99.90;;;;;;6248214;22;20012;-87
2022/06/18 04:08:58;;;;;;;14.88;9.38;;;19.00;99.90;;;;;;6247609;22;20090;-87
2022/06/18 04:11:36;;;;;;;16.23;9.70;;;19.10;99.90;;;;;;6248688;22;20030;-86
2022/06/18 04:14:03;;;;;;;16.52;9.50;;;19.10;99.90;;;;;;6248476;22;20015;-87
2022/06/18 04:17:29;;;;;;;13.88;9.73;;;19.10;99.90;;;;;;6131945;22;20016;-86
2022/06/18 04:19:55;;;;;;;16.02;9.82;;;19.10;99.90;;;;;;6276421;22;20019;-86
2022/06/18 04:22:22;;;;;;;15.52;9.80;;;19.10;99.90;;;;;;6276409;22;20019;-87
2022/06/18 04:24:47;;;;;;;14.60;9.73;;;19.20;99.90;;;;;;6247772;22;20019;-87
2022/06/18 04:27:13;;;;;;;15.23;10.68;;;19.30;99.90;;;;;;6249595;22;20388;-87
2022/06/18 04:29:38;;;;;;;15.20;10.30;;;19.40;99.90;;;;;;6246783;22;20023;-87
2022/06/18 04:32:04;;;;;;;17.05;9.98;;;19.30;99.90;;;;;;6248269;22;20019;-87
2022/06/18 04:34:30;;;;;;;15.57;10.77;;;19.30;99.90;;;;;;6248806;22;20023;-87
2022/06/18 04:36:56;;;;;;;17.35;10.65;;;19.40;99.90;;;;;;6275553;22;20012;-86
2022/06/18 04:39:21;;;;;;;15.45;10.10;;;19.40;99.90;;;;;;6275561;22;20027;-86
2022/06/18 04:41:47;;;;;;;17.50;10.82;;;19.40;99.90;;;;;;6276107;22;20018;-87
2022/06/18 04:44:15;;;;;;;14.52;9.75;;;19.40;99.90;;;;;;6275924;22;20016;-87
2022/06/18 04:46:43;;;;;;;16.63;10.57;;;19.30;99.90;;;;;;6247621;22;20023;-87
2022/06/18 04:49:09;;;;;;;17.38;10.05;;;19.40;99.90;;;;;;6276252;22;20068;-87
2022/06/18 04:51:34;;;;;;;16.40;10.30;;;19.40;99.90;;;;;;6275823;22;20454;-87
2022/06/18 04:54:06;;;;;;;17.30;10.27;;;19.60;99.90;;;;;;6247011;22;20172;-86
2022/06/18 04:56:32;;;;;;;16.50;10.80;;;20.10;99.90;;;;;;6248774;22;20016;-86
2022/06/18 04:58:57;;;;;;;16.20;9.95;;;19.60;99.90;;;;;;6248518;22;20019;-87
2022/06/18 05:01:45;;;;;;;16.52;10.75;;;19.40;99.90;;;;;;6275557;22;20023;-86
2022/06/18 05:04:11;;;;;;;17.13;10.35;;;19.40;99.90;;;;;;6248789;22;20345;-86
2022/06/18 05:06:55;;;;;;;18.30;10.40;;;19.40;99.90;;;;;;6275210;22;20020;-87
2022/06/18 05:09:20;;;;;;;;;;;19.50;99.90;;;;;;6247632;22;20375;-86
2022/06/18 05:11:52;;;;;;;18.20;10.65;;;19.40;99.90;;;;;;6248514;22;19918;-86
2022/06/18 05:14:33;;;;;;;17.23;10.82;;;19.50;99.90;;;;;;6248015;22;20065;-87
2022/06/18 05:17:09;;;;;;;17.35;10.38;;;19.50;99.90;;;;;;6248629;22;20377;-87
2022/06/18 05:19:49;;;;;;;18.33;11.30;;;20.00;99.90;;;;;;6263867;22;20019;-87
2022/06/18 05:22:28;;;;;;;20.73;11.75;;;19.60;99.90;;;;;;6247477;22;20464;-86
2022/06/18 05:24:54;;;;;;;21.08;11.63;;;19.50;99.90;;;;;;6275322;22;20445;-87
2022/06/18 05:27:38;;;;;;;16.95;11.05;;;19.80;99.90;;;;;;6275161;22;20011;-87
2022/06/18 05:30:25;;;;;;;18.75;11.60;;;19.60;99.90;;;;;;6275688;22;20022;-87
2022/06/18 05:33:50;;;;;;;18.02;11.55;;;19.80;99.90;;;;;;6274773;22;20020;-87
2022/06/18 05:36:19;;;;;;;20.45;11.43;;;19.60;99.90;;;;;;6230968;22;20448;-86
2022/06/18 05:39:18;;;;;;;20.13;11.90;;;19.70;99.90;;;;;;6247991;22;20018;-87
2022/06/18 05:42:05;;;;;;;22.10;12.23;;;19.60;99.90;;;;;;6238086;22;20023;-87
2022/06/18 05:44:35;;;;;;;20.77;12.40;;;19.60;99.90;;;;;;6276199;22;20019;-87
2022/06/18 05:47:00;;;;;;;20.27;11.95;;;20.20;99.90;;;;;;6248332;22;20795;-87
2022/06/18 05:49:29;;;;;;;19.05;11.35;;;19.80;99.90;;;;;;6275108;22;20023;-87
2022/06/18 05:52:13;;;;;;;19.92;11.27;;;20.50;99.90;;;;;;6248272;22;20028;-87
2022/06/18 05:54:46;;;;;;;18.17;11.55;;;20.70;99.90;;;;;;6248570;22;20016;-86
2022/06/18 05:57:14;;;;;;;20.92;12.10;;;20.00;99.90;;;;;;6275381;22;20054;-87
2022/06/18 05:59:54;;;;;;;20.40;11.95;;;19.90;99.90;;;;;;6275895;22;20055;-87
2022/06/18 06:02:21;;;;;;;19.42;11.65;;;20.30;99.90;;;;;;6248413;22;20043;-87
2022/06/18 06:04:50;;;;;;;17.80;12.13;;;20.10;99.90;;;;;;6275336;22;20487;-89
2022/06/18 06:07:22;;;;;;;19.20;11.95;;;20.10;99.90;;;;;;6281308;22;20016;-91
2022/06/18 06:13:22;;;;;;;19.15;12.00;;;20.30;99.90;;;;;;6102507;23;20022;-85
2022/06/18 06:15:59;;;;;;;19.73;11.98;;;20.50;99.90;;;;;;6138732;23;20034;-87
2022/06/18 06:18:46;;;;;;;18.30;11.82;;;21.20;99.90;;;;;;6129247;23;20024;-93
2022/06/18 06:22:07;;;;;;;18.95;11.27;;;20.40;99.90;;;;;;6212888;22;20024;-92
2022/06/18 06:24:45;;;;;;;19.08;12.30;;;20.50;99.90;;;;;;6279090;22;20054;-87
2022/06/18 06:27:11;;;;;;;19.02;12.27;;;20.60;99.90;;;;;;6250290;22;20078;-87
2022/06/18 06:29:51;;;;;;;20.42;12.75;;;20.60;99.90;;;;;;6277421;22;20408;-90
2022/06/18 06:32:21;;;;;;;16.48;12.65;;;21.30;99.90;;;;;;6249818;22;20023;-87
2022/06/18 06:34:52;;;;;;;21.33;12.18;;;20.70;99.90;;;;;;6277480;22;20015;-87
2022/06/18 06:37:18;;;;;;;16.73;11.70;;;20.80;99.90;;;;;;6250358;22;20352;-88
2022/06/18 06:39:43;;;;;;;22.15;12.50;;;20.90;99.90;;;;;;6276172;22;20015;-90
2022/06/18 06:42:41;;;;;;;19.30;11.90;;;21.00;99.90;;;;;;6250550;22;20079;-90
2022/06/18 06:45:26;;;;;;;20.85;12.57;;;21.00;99.90;;;;;;6249244;22;20019;-89
2022/06/18 06:47:54;;;;;;;22.83;12.45;;;21.10;99.90;;;;;;6249916;22;20016;-87
2022/06/18 06:50:21;;;;;;;19.23;13.07;;;21.10;99.90;;;;;;6249825;22;20321;-87
2022/06/18 06:52:50;;;;;;;18.60;12.07;;;21.20;99.90;;;;;;6274865;22;20011;-87
2022/06/18 06:58:42;;;;;;;21.50;11.45;;;21.20;99.90;;;;;;6250196;22;20102;-87
2022/06/18 07:01:26;;;;;;;20.95;11.70;;;21.20;99.90;;;;;;6250291;22;20016;-87
2022/06/18 07:03:52;;;;;;;18.50;11.00;;;21.50;99.90;;;;;;6248511;22;20427;-88
2022/06/18 07:06:18;;;;;;;21.55;10.77;;;21.50;99.90;;;;;;6248997;22;20019;-88
2022/06/18 07:08:44;;;;;;;19.80;10.70;;;21.60;99.90;;;;;;6248524;22;20016;-88
2022/06/18 07:15:10;;;;;;;23.25;10.77;;;21.70;99.90;;;;;;6063937;23;20030;-88
2022/06/18 07:18:40;;;;;;;18.73;10.90;;;21.80;99.90;;;;;;6163926;23;20128;-87
2022/06/18 07:21:09;;;;;;;19.80;9.85;;;21.90;99.90;;;;;;6163266;23;20027;-87
2022/06/18 07:23:34;;;;;;;17.52;10.00;;;22.70;99.90;;;;;;6163704;23;20019;-87
2022/06/18 07:26:00;;;;;;;16.23;9.45;;;22.40;99.90;;;;;;6163611;23;20027;-87
2022/06/18 07:28:26;;;;;;;17.50;8.80;;;22.30;99.90;;;;;;6063870;23;20089;-87
2022/06/18 07:31:04;;;;;;;16.33;9.15;;;22.40;99.90;;;;;;6163794;23;20380;-87
2022/06/18 07:33:46;;;;;;;16.50;9.45;;;22.40;99.90;;;;;;6173500;22;20022;-88
2022/06/18 07:36:15;;;;;;;18.38;9.50;;;22.50;99.90;;;;;;6248374;22;20028;-87
2022/06/18 07:38:45;;;;;;;20.67;9.70;;;22.50;99.90;;;;;;6249219;22;20390;-91
2022/06/18 07:41:19;;;;;;;15.35;9.77;;;22.60;99.90;;;;;;6248911;22;20797;-88
2022/06/18 07:44:01;;;;;;;17.83;9.32;;;22.70;99.90;;;;;;6248223;22;20019;-89
2022/06/18 07:46:41;;;;;;;19.38;9.38;;;22.80;99.90;;;;;;6249592;22;20087;-89
2022/06/18 07:49:22;;;;;;;15.77;8.82;;;23.00;99.90;;;;;;6248373;22;20094;-88
2022/06/18 07:52:03;;;;;;;13.98;7.72;;;23.10;99.90;;;;;;6276249;22;20012;-89
2022/06/18 07:54:37;;;;;;;15.35;7.88;;;23.10;99.90;;;;;;6249390;22;20321;-86
2022/06/18 07:57:03;;;;;;;19.42;8.45;;;23.20;99.90;;;;;;6247732;22;20512;-87
2022/06/18 07:59:29;;;;;;;15.52;7.85;;;23.30;99.90;;;;;;6277087;22;20016;-88
2022/06/18 08:01:58;;;;;;;18.00;8.05;;;23.30;99.90;;;;;;6248619;22;20050;-88
2022/06/18 08:04:30;;;;;;;15.40;7.38;;;23.40;99.90;;;;;;6249267;22;20020;-87
2022/06/18 08:07:05;;;;;;;12.70;7.22;;;23.60;99.90;;;;;;6248750;22;20015;-88
2022/06/18 08:09:40;;;;;;;13.07;6.88;;;23.70;99.90;;;;;;6275663;22;20020;-87
2022/06/18 08:12:16;;;;;;;14.20;6.80;;;23.80;99.90;;;;;;6249014;22;20061;-87
2022/06/18 08:14:41;;;;;;;12.32;6.50;;;24.00;99.90;;;;;;6248131;22;20011;-88
2022/06/18 08:17:22;;;;;;;16.50;6.63;;;24.20;99.90;;;;;;6275493;22;20039;-86
2022/06/18 08:19:57;;;;;;;14.23;6.72;;;24.30;99.90;;;;;;6276379;22;20011;-87
2022/06/18 08:22:42;;;;;;;13.77;6.03;;;24.30;99.90;;;;;;6276954;22;20119;-86
2022/06/18 08:25:52;;;;;;;13.70;7.13;;;24.50;99.90;;;;;;6248210;22;20022;-88
2022/06/18 08:28:18;;;;;;;15.35;6.97;;;24.50;99.90;;;;;;6123464;23;20076;-89
2022/06/18 08:31:22;;;;;;;14.20;6.85;;;24.70;99.90;;;;;;6250370;22;20110;-90
2022/06/18 08:34:12;;;;;;;13.55;6.63;;;24.80;99.90;;;;;;6097562;23;20030;-88
2022/06/18 08:48:37;;;;;;;14.35;6.00;;;25.20;99.90;;;;;;6121984;23;20033;-87
2022/06/18 08:51:19;;;;;;;14.18;6.25;;;25.20;99.90;;;;;;6122510;23;20105;-86
2022/06/18 08:54:40;;;;;;;12.90;6.05;;;25.30;99.90;;;;;;6121344;23;20056;-86
2022/06/18 08:57:54;;;;;;;13.13;6.20;;;25.50;99.90;;;;;;6092656;23;20466;-86
2022/06/18 09:01:05;;;;;;;;;;;;;;;;;;;;;
2022/06/18 09:04:27;;;;;;;13.13;6.20;;;25.50;99.90;;;;;;6008873;23;20056;-90
2022/06/18 09:07:24;;;;;;;14.50;5.97;;;25.60;99.90;;;;;;6191776;23;20403;-87
2022/06/18 09:10:27;;;;;;;13.32;5.90;;;25.60;99.90;;;;;;6091239;23;20019;-87
2022/06/18 09:20:10;;;;;;;16.48;6.75;;;25.90;99.90;;;;;;6114788;23;20022;-86
2022/06/18 09:33:42;;;;;;;13.35;5.93;;;26.20;99.90;;;;;;6191583;23;20465;-87
2022/06/18 09:36:31;;;;;;;12.20;5.00;;;26.50;99.90;;;;;;6235210;22;20031;-88
2022/06/18 09:39:59;;;;;;;;;;;;;;;;;;;;;
2022/06/18 09:46:26;;;;;;;13.40;5.22;;;26.60;99.90;;;;;;6276741;22;20023;-88
2022/06/18 09:49:04;;;;;;;12.63;4.60;;;26.60;99.90;;;;;;6248812;22;20153;-86
2022/06/18 09:52:00;;;;;;;12.20;4.90;;;26.60;99.90;;;;;;6250427;22;20340;-87
2022/06/18 09:55:14;;;;;;;11.25;4.80;;;26.70;99.90;;;;;;6208228;22;20391;-87
2022/06/18 10:01:53;;;;;;;11.82;4.50;;;26.50;99.90;;;;;;6230782;22;20100;-88
2022/06/18 10:07:39;;;;;;;12.50;5.03;;;26.90;99.90;;;;;;6250460;22;20020;-86
2022/06/18 10:10:28;;;;;;;9.82;4.40;;;27.00;99.90;;;;;;6248518;22;20019;-88
2022/06/18 10:13:31;;;;;;;13.60;4.78;;;27.10;99.90;;;;;;6223903;22;20081;-88
2022/06/18 10:16:36;;;;;;;13.77;5.15;;;27.40;99.90;;;;;;6249683;22;20016;-87
2022/06/18 10:19:31;;;;;;;11.43;4.50;;;27.30;99.90;;;;;;6249965;22;20472;-87
2022/06/18 10:22:56;;;;;;;11.27;4.53;;;27.30;99.90;;;;;;6250023;22;20039;-88
2022/06/18 10:26:14;;;;;;;11.70;4.57;;;27.50;99.90;;;;;;6250334;22;20016;-87
2022/06/18 10:29:07;;;;;;;11.32;4.80;;;27.60;99.90;;;;;;6277282;22;20015;-87
2022/06/18 10:32:19;;;;;;;9.65;3.95;;;27.70;99.90;;;;;;6250039;22;20440;-88
2022/06/18 10:35:24;;;;;;;9.82;4.63;;;27.70;99.90;;;;;;6276984;22;20336;-87
2022/06/18 10:38:47;;;;;;;13.73;4.60;;;27.80;99.90;;;;;;6246875;22;20012;-87
2022/06/18 10:42:00;;;;;;;11.80;4.45;;;27.90;99.90;;;;;;6218095;22;20050;-88
2022/06/18 10:44:50;;;;;;;11.67;4.43;;;28.20;99.90;;;;;;6249577;22;20471;-87
2022/06/18 10:48:16;;;;;;;12.20;3.90;;;28.30;99.90;;;;;;6250589;22;20385;-87
2022/06/18 10:54:12;;;;;;;11.25;4.57;;;28.70;99.90;;;;;;6249890;22;20440;-88
2022/06/18 10:56:58;;;;;;;10.25;4.03;;;28.80;99.90;;;;;;6277984;22;20015;-88
2022/06/18 10:59:40;;;;;;;11.45;4.32;;;28.60;99.90;;;;;;6276759;22;20012;-88
2022/06/18 11:02:38;;;;;;;10.82;4.40;;;28.20;99.90;;;;;;6250293;22;20052;-88
2022/06/18 11:05:27;;;;;;;9.30;3.80;;;28.00;99.90;;;;;;6276505;22;20042;-87
2022/06/18 11:08:01;;;;;;;8.85;3.70;;;28.00;99.90;;;;;;6249582;22;20015;-88
2022/06/18 11:11:29;;;;;;;9.80;3.90;;;28.40;99.90;;;;;;6264759;22;20015;-89
2022/06/18 11:14:19;;;;;;;10.65;3.88;;;28.60;99.90;;;;;;6275723;22;20027;-87
2022/06/18 11:16:55;;;;;;;10.55;4.20;;;28.70;99.90;;;;;;6277097;22;20008;-86
2022/06/18 11:19:48;;;;;;;9.18;3.72;;;28.80;99.90;;;;;;6249061;22;20019;-88
2022/06/18 11:22:38;;;;;;;8.70;3.50;;;28.60;99.90;;;;;;6250236;22;20103;-87
2022/06/18 11:28:45;;;;;;;10.63;3.67;;;28.00;99.90;;;;;;6248367;22;20016;-87
2022/06/18 11:31:56;;;;;;;10.30;3.80;;;28.40;99.90;;;;;;6276585;22;20027;-88
2022/06/18 11:38:14;;;;;;;8.95;3.88;;;29.20;99.90;;;;;;6276735;22;20025;-87
2022/06/18 11:40:40;;;;;;;10.50;3.85;;;29.40;99.90;;;;;;6122339;23;20097;-87
2022/06/18 11:43:45;;;;;;;11.93;3.95;;;29.50;99.60;;;;;;6174288;22;20015;-87
2022/06/18 11:47:01;;;;;;;13.35;4.63;;;29.30;99.90;;;;;;6275662;22;20386;-91
2022/06/18 11:49:59;;;;;;;11.93;4.80;;;29.10;99.90;;;;;;6249367;22;20027;-86
2022/06/18 11:53:05;;;;;;;11.73;4.65;;;29.20;99.90;;;;;;6274774;22;20016;-88
2022/06/18 11:56:26;;;;;;;11.68;4.32;;;29.40;99.90;;;;;;6246929;22;20071;-86
2022/06/18 11:59:26;;;;;;;13.45;4.90;;;29.50;99.90;;;;;;6248929;22;20018;-86
2022/06/18 12:02:31;;;;;;;12.88;4.22;;;29.40;99.90;;;;;;6275063;22;20517;-86
2022/06/18 12:05:18;;;;;;;13.80;4.20;;;29.40;99.90;;;;;;6274629;22;20103;-86
2022/06/18 12:08:25;;;;;;;12.82;4.15;;;29.10;99.90;;;;;;6275157;22;20028;-86
2022/06/18 12:11:12;;;;;;;9.40;4.30;;;29.10;99.90;;;;;;6247781;22;20027;-86
2022/06/18 12:13:43;;;;;;;13.23;4.60;;;29.10;99.90;;;;;;6248476;22;20024;-87
2022/06/18 12:16:35;;;;;;;10.57;3.95;;;29.20;99.90;;;;;;6196908;22;20389;-87
2022/06/18 12:19:32;;;;;;;13.45;4.43;;;29.30;99.90;;;;;;6247822;22;20016;-88
2022/06/18 12:26:15;;;;;;;10.65;4.40;;;29.10;99.90;;;;;;6275197;22;20071;-87
2022/06/18 12:29:06;;;;;;;13.43;4.60;;;28.50;99.60;;;;;;6248955;22;20030;-88
2022/06/18 12:32:16;;;;;;;12.13;3.92;;;28.20;99.90;;;;;;6275570;22;20015;-87
2022/06/18 12:35:25;;;;;;;11.68;4.57;;;28.20;99.90;;;;;;6122735;23;20373;-87
2022/06/18 12:38:21;;;;;;;11.10;4.13;;;28.10;99.90;;;;;;6122038;23;20064;-86
2022/06/18 12:41:10;;;;;;;11.38;4.47;;;28.10;99.90;;;;;;6122734;23;20018;-87
2022/06/18 12:44:16;;;;;;;11.50;4.10;;;28.10;99.90;;;;;;6122159;23;20081;-86
2022/06/18 12:47:11;;;;;;;11.18;3.65;;;28.30;99.90;;;;;;6254666;22;20448;-87
2022/06/18 12:50:10;;;;;;;9.98;4.30;;;28.60;99.90;;;;;;6248708;22;20023;-87
2022/06/18 12:53:12;;;;;;;12.05;3.42;;;28.70;99.90;;;;;;6275072;22;20051;-87
2022/06/18 12:56:20;;;;;;;11.23;3.88;;;28.60;99.90;;;;;;6248623;22;20020;-86
2022/06/18 12:59:42;;;;;;;9.77;3.30;;;28.50;99.90;;;;;;6239209;22;20016;-87
2022/06/18 13:02:49;;;;;;;9.52;3.50;;;28.70;99.90;;;;;;6247455;22;20015;-86
2022/06/18 13:05:47;;;;;;;10.75;3.47;;;28.50;99.90;;;;;;6247522;22;20019;-87
2022/06/18 13:08:55;;;;;;;9.68;3.10;;;28.30;99.90;;;;;;6248907;22;20015;-88
2022/06/18 13:11:49;;;;;;;7.97;3.22;;;28.10;99.90;;;;;;6276125;22;20026;-87
2022/06/18 13:14:52;;;;;;;10.30;3.10;;;27.90;99.90;;;;;;6275105;22;20015;-86
2022/06/18 13:17:49;;;;;;;9.13;3.10;;;27.80;99.90;;;;;;6248483;22;20028;-88
2022/06/18 13:21:03;;;;;;;9.98;2.90;;;27.60;99.90;;;;;;6272919;22;20026;-87
2022/06/18 13:30:31;;;;;;;8.60;2.88;;;27.40;99.90;;;;;;6247606;22;20059;-85
2022/06/18 13:37:30;;;;;;;6.78;2.40;;;27.40;99.90;;;;;;6267665;22;20081;-87
2022/06/18 13:47:49;;;;;;;7.72;2.60;;;27.70;99.90;;;;;;6180909;23;20052;-87
2022/06/18 13:50:43;;;;;;;8.93;2.97;;;28.00;99.90;;;;;;6182091;23;20048;-87
2022/06/18 13:53:31;;;;;;;8.00;2.40;;;28.20;99.90;;;;;;6180503;23;20013;-87
2022/06/18 13:56:38;;;;;;;7.22;2.30;;;28.30;99.90;;;;;;6180069;23;20024;-88
2022/06/18 13:59:47;;;;;;;8.57;2.50;;;28.00;99.90;;;;;;6225380;22;20015;-88
2022/06/18 14:02:59;;;;;;;8.77;2.20;;;27.70;99.90;;;;;;6274633;22;20019;-89
2022/06/18 14:10:03;;;;;;;6.40;2.10;;;27.30;99.90;;;;;;6272259;22;20028;-89
2022/06/18 14:19:21;;;;;;;6.85;2.20;;;27.20;99.90;;;;;;6151857;22;20066;-87
2022/06/18 14:22:37;;;;;;;6.68;2.05;;;27.30;99.90;;;;;;6247091;22;20015;-87
2022/06/18 14:29:16;;;;;;;6.83;2.33;;;27.80;99.90;;;;;;6273249;22;20109;-89
2022/06/18 14:35:49;;;;;;;7.13;2.38;;;27.70;99.90;;;;;;6268755;22;20043;-88
2022/06/18 14:38:40;;;;;;;6.90;2.40;;;27.80;99.90;;;;;;6276272;22;20042;-87
2022/06/18 14:45:03;;;;;;;7.25;2.10;;;27.80;99.90;;;;;;6152182;23;20029;-88
2022/06/18 15:02:42;;;;;;;6.45;2.03;;;27.90;99.90;;;;;;6086327;22;20019;-88
2022/06/18 15:09:33;;;;;;;6.05;2.00;;;27.40;99.90;;;;;;6243313;23;20395;-88
2022/06/18 15:12:03;;;;;;;7.13;2.08;;;27.30;99.90;;;;;;6243159;23;20016;-89
2022/06/18 15:15:30;;;;;;;8.35;2.80;;;27.30;99.90;;;;;;6244142;23;20013;-90
2022/06/18 16:30:48;;;;;;;8.10;2.00;;;26.50;99.90;;;;;;6226223;22;20333;-90
2022/06/18 16:56:25;;;;;;;8.38;2.20;;;26.00;99.90;;;;;;6274923;22;20015;-91
2022/06/18 16:58:50;;;;;;;8.60;2.30;;;25.90;99.90;;;;;;6247719;22;20043;-90
2022/06/18 17:01:21;;;;;;;8.10;2.20;;;25.80;99.90;;;;;;6249046;22;20436;-86
2022/06/18 17:07:14;;;;;;;8.73;2.17;;;25.70;99.90;;;;;;6245172;23;20020;-91
2022/06/18 17:10:36;;;;;;;10.40;2.13;;;25.60;99.70;;;;;;6242851;23;20016;-91
2022/06/18 17:13:04;;;;;;;8.55;2.60;;;25.10;99.80;;;;;;6243532;23;20321;-89
2022/06/18 17:15:48;;;;;;;8.50;2.38;;;24.60;99.90;;;;;;6245452;23;20020;-90
2022/06/18 17:18:14;;;;;;;8.90;2.28;;;24.20;99.90;;;;;;6245182;23;20065;-90
2022/06/18 17:20:44;;;;;;;8.85;2.33;;;24.30;99.90;;;;;;6218429;23;20016;-90
2022/06/18 17:23:26;;;;;;;8.65;2.17;;;23.80;99.90;;;;;;6245946;23;20016;-90
2022/06/18 17:31:52;;;;;;;7.70;2.05;;;24.40;99.90;;;;;;6245150;23;20325;-89
2022/06/18 17:34:36;;;;;;;8.60;1.95;;;24.30;99.90;;;;;;6239871;23;20087;-90
2022/06/18 17:37:27;;;;;;;;;;;;;;;;;;;;;
2022/06/18 17:44:31;;;;;;;;;;;;;;;;;;;;;
2022/06/18 17:47:32;;;;;;;7.00;1.70;;;24.60;99.90;;;;;;5965502;23;20120;-89
2022/06/18 17:50:03;;;;;;;6.22;1.73;;;24.60;99.90;;;;;;6132313;22;20024;-90
2022/06/18 17:55:27;;;;;;;7.93;1.83;;;24.50;99.80;;;;;;6157068;23;20112;-90
2022/06/18 17:57:53;;;;;;;5.38;1.63;;;24.20;99.50;;;;;;6234985;22;20015;-90
2022/06/18 18:00:33;;;;;;;5.45;1.60;;;24.10;99.80;;;;;;6247897;22;20050;-90
2022/06/18 18:03:51;;;;;;;;;;;;;;;;;;;;;
2022/06/18 18:07:03;;;;;;;6.68;1.80;;;23.70;99.90;;;;;;6125271;23;20510;-89
2022/06/18 18:09:46;;;;;;;;;;;;;;;;;;;;;
2022/06/18 18:12:26;;;;;;;7.95;2.17;;;23.50;99.90;;;;;;6124007;23;20029;-90